Time;durP1;ratioP1;P1;durP2;ratioP2;P2;SDS_P1;SDS_P2;PMS_P1;PMS_P2;Temp;Humidity;BMP_temperature;BMP_pressure;BME280_temperature;BME280_humidity;BME280_pressure;Samples;Min_cycle;Max_cycle;Signal;HPM_P1;HPM_P2
2023/07/20 00:05:12;;;;;;;7.20;5.20;;;;;;;17.65;57.48;97816.79;434219;1257;99247;-42
2023/07/20 00:25:26;;;;;;;14.60;9.80;;;;;;;17.50;58.32;97794.95;434268;1256;99217;-41
2023/07/20 00:35:33;;;;;;;17.20;10.00;;;;;;;17.50;59.34;97801.23;434346;1257;111396;-41
2023/07/20 00:45:41;;;;;;;12.00;6.30;;;;;;;17.48;59.95;97810.83;434210;1253;107506;-42
2023/07/20 00:55:48;;;;;;;7.50;6.40;;;;;;;17.28;59.99;97847.52;434308;1253;98914;-42
2023/07/20 01:05:59;;;;;;;13.10;5.80;;;;;;;17.12;59.76;97870.69;434344;1257;106742;-42
2023/07/20 01:16:05;;;;;;;14.10;5.70;;;;;;;17.07;59.75;97880.96;434383;1257;97976;-42
2023/07/20 01:26:16;;;;;;;13.20;5.30;;;;;;;17.14;59.63;97872.89;435726;1257;111896;-42
2023/07/20 01:46:31;;;;;;;7.60;4.40;;;;;;;17.65;59.19;97922.06;434741;1254;98052;-41
2023/07/20 02:06:45;;;;;;;8.80;4.90;;;;;;;17.06;60.83;97960.08;434501;1257;99246;-43
2023/07/20 02:16:53;;;;;;;14.10;5.40;;;;;;;16.47;62.04;97949.51;434716;1257;111719;-44
2023/07/20 02:27:01;;;;;;;9.60;4.70;;;;;;;16.00;63.78;97969.98;434609;1267;107896;-43
2023/07/20 02:37:08;;;;;;;12.80;5.50;;;;;;;15.69;64.98;97982.30;434686;1254;99310;-44
2023/07/20 02:47:18;;;;;;;7.60;5.70;;;;;;;15.64;65.72;98009.69;434811;1257;109853;-43
2023/07/20 03:17:35;;;;;;;7.30;5.00;;;;;;;15.45;68.73;98022.14;434758;1254;108057;-43
2023/07/20 03:27:42;;;;;;;10.90;4.70;;;;;;;15.50;69.70;98055.45;434952;1257;99877;-43
2023/07/20 03:37:50;;;;;;;8.20;4.20;;;;;;;15.57;70.64;98034.15;434883;1257;108129;-46
2023/07/20 03:47:57;;;;;;;4.80;3.60;;;;;;;15.63;71.23;98000.69;434761;1257;98816;-45
2023/07/20 03:58:03;;;;;;;5.60;4.20;;;;;;;15.74;71.42;97994.73;434637;1257;111844;-44
2023/07/20 04:18:17;;;;;;;6.30;4.30;;;;;;;15.94;71.60;98010.79;434669;1258;99217;-44
2023/07/20 04:28:23;;;;;;;8.10;4.10;;;;;;;16.08;72.01;97997.80;434602;1257;106982;-43
2023/07/20 04:38:30;;;;;;;7.10;4.00;;;;;;;16.97;72.28;98005.46;434786;1257;99246;-43
2023/07/20 04:48:36;;;;;;;5.80;3.60;;;;;;;17.92;71.43;98009.25;434715;1266;111045;-44
2023/07/20 04:58:43;;;;;;;5.40;3.10;;;;;;;18.82;71.03;98011.88;434683;1259;107504;-44
2023/07/20 05:08:50;;;;;;;2.80;2.60;;;;;;;19.96;70.00;98025.99;434704;1254;99112;-43
2023/07/20 05:29:02;;;;;;;3.30;2.70;;;;;;;20.18;67.76;98032.77;434719;1257;99221;-42
2023/07/20 05:39:09;;;;;;;5.40;3.10;;;;;;;19.89;68.04;98035.47;434668;1257;111180;-43
2023/07/20 05:49:15;;;;;;;3.70;3.00;;;;;;;21.14;68.07;98030.24;434632;1253;107195;-44
2023/07/20 05:59:21;;;;;;;5.20;2.90;;;;;;;22.38;67.27;98022.64;434590;1257;98014;-42
2023/07/20 06:09:29;;;;;;;2.10;1.70;;;;;;;23.18;65.67;98029.37;434507;1257;107413;-42
2023/07/20 06:19:36;;;;;;;1.90;1.60;;;;;;;23.69;63.92;98022.59;434715;1254;99462;-42
2023/07/20 06:29:42;;;;;;;2.80;1.90;;;;;;;24.24;62.35;98027.89;434661;1257;112045;-41
2023/07/20 06:39:49;;;;;;;2.30;2.10;;;;;;;24.23;60.81;98025.17;434632;1257;109391;-41
2023/07/20 06:49:59;;;;;;;3.30;2.50;;;;;;;24.03;60.04;98033.61;434555;1257;99240;-42
2023/07/20 07:00:08;;;;;;;2.90;2.30;;;;;;;24.20;59.60;98039.79;434589;1257;108484;-42
2023/07/20 07:10:15;;;;;;;3.10;2.80;;;;;;;24.10;58.90;98045.98;434446;1259;99250;-42
2023/07/20 07:20:23;;;;;;;5.70;3.20;;;;;;;23.40;58.51;98053.04;434540;1253;111788;-41
2023/07/20 07:30:31;;;;;;;5.40;2.80;;;;;;;23.28;59.05;98055.58;434142;1253;107002;-41
2023/07/20 07:40:41;;;;;;;4.50;3.20;;;;;;;23.13;58.51;98068.54;434636;1253;99233;-42
2023/07/20 07:50:49;;;;;;;5.30;3.60;;;;;;;22.71;58.91;98072.70;434643;1253;107642;-40
2023/07/20 08:00:56;;;;;;;5.80;3.00;;;;;;;22.93;58.95;98074.55;434689;1253;99249;-41
2023/07/20 08:11:04;;;;;;;6.90;3.70;;;;;;;22.97;58.72;98085.84;434673;1253;112879;-41
2023/07/20 08:21:14;;;;;;;5.90;3.20;;;;;;;23.25;57.94;98082.45;434533;1253;109365;-41
2023/07/20 08:31:18;;;;;;;;;;;;;;;23.15;57.28;98089.73;434742;1257;99237;-44
2023/07/20 08:41:24;;;;;;;3.80;2.50;;;;;;;23.76;57.09;98088.09;434465;1253;108601;-41
2023/07/20 08:51:29;;;;;;;;;;;;;;;23.90;55.69;98098.04;434618;1258;101404;-42
2023/07/20 09:11:47;;;;;;;3.70;2.20;;;;;;;23.53;55.17;98107.83;434579;1253;108737;-42
2023/07/20 09:21:54;;;;;;;3.30;1.70;;;;;;;23.97;54.20;98115.43;434458;1257;98126;-42
2023/07/20 09:32:05;;;;;;;2.90;1.40;;;;;;;24.32;52.62;98126.22;434455;1257;106388;-42
2023/07/20 09:42:12;;;;;;;2.30;2.00;;;;;;;23.32;52.03;98125.03;434614;1255;99212;-42
2023/07/20 09:52:21;;;;;;;9.50;2.20;;;;;;;22.88;53.16;98135.23;434563;1257;112110;-41
2023/07/20 10:02:33;;;;;;;4.80;2.10;;;;;;;23.50;53.88;98136.45;434539;1253;108660;-42
2023/07/20 10:12:42;;;;;;;2.00;1.80;;;;;;;23.62;53.13;98132.92;434558;1253;99253;-40
2023/07/20 10:22:54;;;;;;;2.30;1.80;;;;;;;23.63;53.19;98130.51;434426;1257;108091;-41
2023/07/20 10:33:05;;;;;;;4.00;1.90;;;;;;;23.26;53.07;98127.57;434485;1253;99250;-41
2023/07/20 10:43:12;;;;;;;5.00;2.30;;;;;;;23.60;52.83;98116.30;434591;1253;111105;-41
2023/07/20 10:53:20;;;;;;;3.80;1.80;;;;;;;23.72;52.88;98108.52;434420;1253;109442;-41
2023/07/20 11:13:54;;;;;;;3.60;1.50;;;;;;;24.12;51.52;98124.25;434549;1257;107731;-42
2023/07/20 11:24:04;;;;;;;4.10;1.80;;;;;;;24.16;52.65;98120.21;434644;1259;99272;-41
2023/07/20 11:44:26;;;;;;;1.70;1.40;;;;;;;24.33;52.01;98118.23;434586;1269;107538;-41
2023/07/20 11:54:33;;;;;;;2.20;2.10;;;;;;;22.94;52.83;98134.54;434711;1253;99236;-42
2023/07/20 12:04:42;;;;;;;1.80;1.40;;;;;;;22.02;54.92;98139.64;434725;1253;108051;-43
2023/07/20 12:14:47;;;;;;;3.80;1.60;;;;;;;21.93;56.47;98120.74;434528;1257;362000;-43
2023/07/20 12:24:54;;;;;;;1.30;1.10;;;;;;;22.70;57.36;98104.49;434645;1253;110948;-42
2023/07/20 12:35:02;;;;;;;1.50;1.00;;;;;;;23.17;56.62;98105.40;434689;1253;107426;-43
2023/07/20 12:55:19;;;;;;;2.00;1.40;;;;;;;23.79;55.41;98083.84;434787;1268;107901;-42
2023/07/20 13:05:26;;;;;;;2.50;1.50;;;;;;;24.01;54.44;98077.78;434853;1254;99237;-43
2023/07/20 13:15:46;;;;;;;2.30;1.80;;;;;;;23.97;53.59;98071.38;434748;1258;112036;-40
2023/07/20 13:25:52;;;;;;;2.00;1.50;;;;;;;24.01;53.53;98076.02;434696;1253;108091;-43
2023/07/20 13:35:59;;;;;;;2.10;1.80;;;;;;;23.74;53.05;98070.98;434760;1259;98357;-42
2023/07/20 13:46:14;;;;;;;1.60;1.40;;;;;;;23.64;52.91;98066.90;434815;1256;109631;-42
2023/07/20 13:56:22;;;;;;;3.20;1.70;;;;;;;23.99;52.48;98067.83;434737;1254;98824;-42
2023/07/20 14:06:32;;;;;;;3.60;1.40;;;;;;;24.23;51.28;98081.48;434769;1254;111946;-41
2023/07/20 14:16:39;;;;;;;2.20;1.10;;;;;;;23.47;51.49;98097.75;434877;1254;108231;-42
2023/07/20 14:26:46;;;;;;;4.60;1.20;;;;;;;22.93;50.83;98113.70;434860;1256;98843;-42
2023/07/20 14:36:52;;;;;;;7.10;1.80;;;;;;;22.04;51.71;98130.73;434837;1259;108252;-43
2023/07/20 14:46:58;;;;;;;1.80;1.70;;;;;;;21.34;53.66;98136.99;434822;1260;98515;-43
2023/07/20 14:57:19;;;;;;;2.40;1.20;;;;;;;21.35;54.70;98131.70;434747;1259;112028;-43
2023/07/20 15:07:27;;;;;;;1.60;1.10;;;;;;;21.36;54.77;98131.89;434988;1254;106472;-43
2023/07/20 15:17:35;;;;;;;2.10;1.40;;;;;;;21.43;54.97;98122.82;434881;1254;99237;-42
2023/07/20 15:27:43;;;;;;;2.00;1.80;;;;;;;21.75;55.20;98116.96;434901;1257;108020;-42
2023/07/20 15:37:58;;;;;;;4.90;1.40;;;;;;;21.99;55.43;98105.48;434878;1253;99259;-42
2023/07/20 15:48:07;;;;;;;1.30;1.20;;;;;;;22.11;55.22;98096.52;435134;1257;111836;-43
2023/07/20 15:58:12;;;;;;;;;;;;;;;22.19;54.85;98095.55;435076;1257;108767;-42
2023/07/20 16:08:18;;;;;;;1.40;1.20;;;;;;;22.12;53.59;98097.16;434849;1253;99244;-42
2023/07/20 16:18:26;;;;;;;1.40;1.30;;;;;;;22.09;52.59;98100.52;434917;1254;108397;-42
2023/07/20 16:28:34;;;;;;;1.20;1.00;;;;;;;22.07;52.36;98101.75;434888;1259;101531;-45
2023/07/20 16:38:42;;;;;;;1.20;1.10;;;;;;;22.02;52.22;98100.20;435084;1253;112049;-41
2023/07/20 16:48:52;;;;;;;3.60;1.10;;;;;;;21.85;52.40;98105.42;434871;1254;108319;-42
2023/07/20 16:59:02;;;;;;;5.70;3.50;;;;;;;21.71;52.75;98114.38;435025;1254;99890;-42
2023/07/20 17:09:10;;;;;;;3.60;1.20;;;;;;;21.77;52.87;98123.90;434814;1257;108684;-42
2023/07/20 17:19:17;;;;;;;4.00;1.70;;;;;;;21.82;53.03;98132.43;434863;1254;97982;-43
2023/07/20 17:29:23;;;;;;;1.70;1.60;;;;;;;21.84;53.26;98135.34;434974;1254;112078;-42
2023/07/20 17:39:29;;;;;;;2.10;1.70;;;;;;;21.81;53.40;98137.30;434929;1254;108400;-42
2023/07/20 17:49:39;;;;;;;2.20;2.10;;;;;;;21.74;53.42;98145.42;434780;1254;98728;-43
2023/07/20 17:59:44;;;;;;;1.70;1.50;;;;;;;21.52;53.67;98141.16;434854;1260;108453;-42
2023/07/20 18:09:55;;;;;;;3.50;1.80;;;;;;;21.23;53.98;98146.46;434820;1255;99249;-42
2023/07/20 18:30:10;;;;;;;3.90;1.90;;;;;;;20.46;54.95;98180.90;435077;1257;107596;-43
2023/07/20 18:40:17;;;;;;;3.30;1.80;;;;;;;19.85;55.58;98188.48;434904;1256;99321;-41
2023/07/20 18:50:22;;;;;;;1.90;1.50;;;;;;;19.50;55.80;98194.39;434801;1260;108140;-42
2023/07/20 19:00:31;;;;;;;1.50;1.40;;;;;;;19.03;56.22;98199.09;434921;1256;99221;-43
2023/07/20 19:10:38;;;;;;;2.10;1.40;;;;;;;18.52;56.92;98210.52;434885;1257;111217;-43
2023/07/20 19:20:49;;;;;;;3.40;1.50;;;;;;;18.26;57.67;98221.33;434765;1257;107521;-42
2023/07/20 19:30:56;;;;;;;2.70;2.00;;;;;;;17.94;58.34;98223.90;434989;1254;99151;-42
2023/07/20 19:41:05;;;;;;;4.80;2.50;;;;;;;17.69;59.33;98234.64;434923;1267;107623;-43
2023/07/20 19:51:12;;;;;;;7.60;2.10;;;;;;;17.78;60.06;98239.89;434858;1267;99214;-43
2023/07/20 20:01:20;;;;;;;7.00;2.60;;;;;;;17.96;60.87;98260.59;434855;1259;111086;-42
2023/07/20 20:11:30;;;;;;;3.50;2.90;;;;;;;17.90;61.51;98308.41;434925;1257;107560;-44
2023/07/20 20:21:38;;;;;;;5.60;3.70;;;;;;;17.37;62.36;98307.39;434945;1254;99221;-44
2023/07/20 20:31:45;;;;;;;5.50;3.40;;;;;;;17.05;63.33;98301.77;434848;1257;107855;-44
2023/07/20 20:41:52;;;;;;;5.20;3.10;;;;;;;16.90;64.26;98292.21;434752;1257;99340;-43
2023/07/20 20:51:59;;;;;;;3.40;3.10;;;;;;;16.69;65.30;98290.92;434984;1258;111509;-44
2023/07/20 21:02:07;;;;;;;5.80;3.00;;;;;;;16.59;66.41;98277.25;435009;1257;108449;-45
2023/07/20 21:12:14;;;;;;;4.80;3.20;;;;;;;16.58;67.26;98253.83;434941;1258;99212;-44
2023/07/20 21:22:21;;;;;;;3.70;3.30;;;;;;;16.60;68.17;98271.81;434974;1254;108706;-43
2023/07/20 21:32:29;;;;;;;3.90;3.50;;;;;;;16.46;68.08;98268.36;434876;1257;99259;-43
2023/07/20 21:42:37;;;;;;;4.00;3.70;;;;;;;16.29;69.10;98267.39;434817;1254;111151;-43
2023/07/20 21:52:45;;;;;;;5.30;3.90;;;;;;;16.24;69.60;98272.43;434786;1257;107766;-44
2023/07/20 22:02:52;;;;;;;6.20;5.20;;;;;;;16.29;70.35;98278.85;434736;1267;99276;-43
2023/07/20 22:13:00;;;;;;;5.40;4.90;;;;;;;16.35;70.55;98278.03;434690;1257;108485;-42
2023/07/20 22:23:07;;;;;;;5.20;4.70;;;;;;;16.23;71.03;98290.36;434580;1257;99224;-43
2023/07/20 22:33:13;;;;;;;6.50;5.50;;;;;;;16.19;71.40;98290.92;434680;1258;110910;-42
2023/07/20 22:43:24;;;;;;;7.20;5.70;;;;;;;16.12;71.76;98292.34;434650;1254;108565;-44
2023/07/20 22:53:32;;;;;;;8.10;5.40;;;;;;;16.06;72.10;98296.19;434959;1257;99326;-43
2023/07/20 23:03:40;;;;;;;10.30;7.00;;;;;;;15.95;72.17;98294.27;434721;1253;109481;-41
2023/07/20 23:13:47;;;;;;;8.80;6.70;;;;;;;15.73;72.36;98281.02;434982;1257;99212;-42
2023/07/20 23:23:53;;;;;;;7.30;5.90;;;;;;;15.66;72.72;98276.98;434884;1257;111707;-43
2023/07/20 23:44:06;;;;;;;13.30;5.40;;;;;;;15.64;73.38;98260.58;434900;1257;99247;-43
2023/07/20 23:54:14;;;;;;;6.90;4.80;;;;;;;15.70;73.69;98259.48;434928;1257;105949;-47
